EGJA/ACI METAR and TAF weather

Enter ICAO airport designator
Station Type Date Time Source
EGJA METAR 2021/07/26 12:50 UTC NOAA

EGJA 261250Z 25009KT 220V280 7000 SCT002 BKN003 18/17 Q1012


Station Type Date Time Source
EGJA Decoded METAR 2021/07/26 12:50 UTC NOAA

Alderney / Channel Island, United Kingdom (EGJA) 49-43N 002-12W
Jul 26, 2021 - 08:50 AM EDT / 2021.07.26 1250 UTC
Wind: from the WSW (250 degrees) at 10 MPH (9 KT) (direction variable):0
Visibility: 4 mile(s):0
Sky conditions: mostly cloudy
Temperature: 64 F (18 C)
Dew Point: 62 F (17 C)
Relative Humidity: 93%
Pressure (altimeter): 29.88 in. Hg (1012 hPa)
ob: EGJA 261250Z 25009KT 220V280 7000 SCT002 BKN003 18/17 Q1012
cycle: 13

Station Type Date Time Source
EGJA TAF UTC NOAA

Error!

Example: see airport list